Time;durP1;ratioP1;P1;durP2;ratioP2;P2;SDS_P1;SDS_P2;PMS_P1;PMS_P2;Temp;Humidity;BMP_temperature;BMP_pressure;BME280_temperature;BME280_humidity;BME280_pressure;Samples;Min_cycle;Max_cycle;Signal;HPM_P1;HPM_P2
2022/10/15 00:00:19;;;;;;;21.83;17.27;;;14.60;99.90;;;;;;5095586;28;20568;-69
2022/10/15 00:02:46;;;;;;;20.97;16.50;;;14.70;99.90;;;;;;5095383;28;20457;-69
2022/10/15 00:05:13;;;;;;;18.77;16.20;;;14.60;99.90;;;;;;5095071;28;20552;-69
2022/10/15 00:07:40;;;;;;;18.60;16.60;;;14.60;99.90;;;;;;5095232;28;20548;-69
2022/10/15 00:10:07;;;;;;;23.17;17.00;;;14.60;99.90;;;;;;5095514;28;20446;-70
2022/10/15 00:12:35;;;;;;;19.80;16.90;;;14.60;99.90;;;;;;5095466;28;20453;-70
2022/10/15 00:15:02;;;;;;;19.90;17.20;;;14.60;99.90;;;;;;5095179;28;20553;-69
2022/10/15 00:17:29;;;;;;;20.27;18.00;;;14.60;99.90;;;;;;5095397;28;20457;-70
2022/10/15 00:19:56;;;;;;;21.07;16.73;;;14.60;99.90;;;;;;5095522;28;20505;-69
2022/10/15 00:22:23;;;;;;;22.60;17.50;;;14.60;99.90;;;;;;5095199;28;20463;-69
2022/10/15 00:24:50;;;;;;;21.40;17.10;;;14.60;99.90;;;;;;5095349;28;20478;-69
2022/10/15 00:27:17;;;;;;;21.90;18.07;;;14.60;99.90;;;;;;5095718;28;20453;-69
2022/10/15 00:29:45;;;;;;;21.80;18.10;;;14.60;99.90;;;;;;5095296;28;20460;-69
2022/10/15 00:32:12;;;;;;;22.20;17.90;;;14.50;99.90;;;;;;5095396;28;20489;-67
2022/10/15 00:34:39;;;;;;;20.90;17.30;;;14.50;99.90;;;;;;5095048;28;20531;-68
2022/10/15 00:37:06;;;;;;;26.73;19.50;;;14.40;99.90;;;;;;5095391;28;20492;-69
2022/10/15 00:39:33;;;;;;;25.90;19.27;;;14.40;99.90;;;;;;5095327;28;20535;-69
2022/10/15 00:41:59;;;;;;;25.83;18.13;;;14.40;99.90;;;;;;5095358;28;20917;-68
2022/10/15 00:44:54;;;;;;;25.40;20.23;;;14.40;99.90;;;;;;5095007;28;20453;-68
2022/10/15 00:47:27;;;;;;;28.13;19.90;;;14.40;99.90;;;;;;5094828;28;20870;-68
2022/10/15 00:50:02;;;;;;;25.20;19.00;;;14.30;99.90;;;;;;5095404;28;20453;-68
2022/10/15 00:52:37;;;;;;;22.03;19.27;;;14.30;99.90;;;;;;5095289;28;20957;-68
2022/10/15 00:55:10;;;;;;;26.97;19.80;;;14.30;99.90;;;;;;5095480;28;20779;-68
2022/10/15 00:57:37;;;;;;;24.37;19.47;;;14.20;99.90;;;;;;5095157;28;20442;-68
2022/10/15 01:00:09;;;;;;;24.10;19.23;;;14.20;99.90;;;;;;5094761;28;20499;-69
2022/10/15 01:02:36;;;;;;;28.07;20.53;;;14.20;99.90;;;;;;5094773;28;20878;-69
2022/10/15 01:05:03;;;;;;;25.97;20.97;;;14.20;99.90;;;;;;5094946;28;20463;-68
2022/10/15 01:07:30;;;;;;;23.30;18.87;;;14.20;99.90;;;;;;5094425;28;20461;-69
2022/10/15 01:09:57;;;;;;;26.40;20.43;;;14.30;99.90;;;;;;5094745;28;20914;-69
2022/10/15 01:12:34;;;;;;;23.57;19.70;;;14.20;99.90;;;;;;5094998;28;20469;-68
2022/10/15 01:15:11;;;;;;;25.40;18.10;;;14.20;99.90;;;;;;5095416;28;20465;-68
2022/10/15 01:17:44;;;;;;;23.33;18.57;;;14.20;99.90;;;;;;5095422;28;20464;-70
2022/10/15 01:20:44;;;;;;;23.40;17.50;;;14.20;99.90;;;;;;5094689;28;20937;-69
2022/10/15 01:23:37;;;;;;;23.73;18.10;;;14.20;99.90;;;;;;5094554;28;20496;-69
2022/10/15 01:26:25;;;;;;;25.60;17.70;;;14.20;99.90;;;;;;5081107;28;20843;-68
2022/10/15 01:28:58;;;;;;;26.67;20.73;;;14.10;99.90;;;;;;5096120;28;20438;-69
2022/10/15 01:31:34;;;;;;;24.10;18.40;;;14.20;99.90;;;;;;5095026;28;20433;-69
2022/10/15 01:34:03;;;;;;;21.10;18.30;;;14.10;99.90;;;;;;5094605;28;20519;-68
2022/10/15 01:36:36;;;;;;;20.63;17.97;;;14.10;99.90;;;;;;5094449;28;20463;-70
2022/10/15 01:39:10;;;;;;;24.30;18.43;;;14.10;99.90;;;;;;5094540;28;20438;-70
2022/10/15 01:41:43;;;;;;;25.33;19.30;;;14.20;99.90;;;;;;5094632;28;20474;-70
2022/10/15 01:44:15;;;;;;;20.83;17.80;;;14.20;99.90;;;;;;5094742;28;20442;-70
2022/10/15 01:46:47;;;;;;;27.00;19.83;;;14.20;99.90;;;;;;5094176;28;20456;-71
2022/10/15 01:49:20;;;;;;;26.23;19.80;;;14.10;99.90;;;;;;5094336;28;20465;-71
2022/10/15 01:51:50;;;;;;;23.87;18.23;;;14.20;99.90;;;;;;5093856;28;20437;-71
2022/10/15 01:54:19;;;;;;;24.70;19.67;;;14.20;99.90;;;;;;5094303;28;20856;-71
2022/10/15 01:56:49;;;;;;;24.77;18.80;;;14.20;99.90;;;;;;5094137;28;20464;-71
2022/10/15 01:59:18;;;;;;;26.10;19.20;;;14.20;99.90;;;;;;5093919;28;20862;-71
2022/10/15 02:01:47;;;;;;;21.63;17.80;;;14.20;99.90;;;;;;5093966;28;20445;-71
2022/10/15 02:04:19;;;;;;;21.60;18.13;;;14.20;99.90;;;;;;5093929;28;20779;-71
2022/10/15 02:06:51;;;;;;;25.93;19.10;;;14.20;99.90;;;;;;5093668;28;20452;-71
2022/10/15 02:09:27;;;;;;;22.03;18.53;;;14.20;99.90;;;;;;5094342;28;20449;-71
2022/10/15 02:12:05;;;;;;;26.37;19.30;;;14.20;99.90;;;;;;5093905;28;20478;-71
2022/10/15 02:14:38;;;;;;;23.83;18.13;;;14.20;99.90;;;;;;5093680;28;20448;-71
2022/10/15 02:17:10;;;;;;;22.97;18.47;;;14.20;99.90;;;;;;5094378;28;20468;-71
2022/10/15 02:19:44;;;;;;;27.57;19.33;;;14.20;99.90;;;;;;5095848;28;20762;-71
2022/10/15 02:22:15;;;;;;;25.33;18.70;;;14.20;99.90;;;;;;5097587;28;20437;-71
2022/10/15 02:24:49;;;;;;;22.60;18.03;;;14.20;99.90;;;;;;5097466;28;20857;-71
2022/10/15 02:27:18;;;;;;;22.60;18.60;;;14.20;99.90;;;;;;5097821;28;20518;-71
2022/10/15 02:29:46;;;;;;;25.07;19.90;;;14.20;99.90;;;;;;5097621;28;20457;-71
2022/10/15 02:32:17;;;;;;;28.27;19.90;;;14.20;99.90;;;;;;5097498;28;20484;-71
2022/10/15 02:34:45;;;;;;;25.60;18.33;;;14.20;99.90;;;;;;5097304;28;20464;-71
2022/10/15 02:37:13;;;;;;;27.90;20.20;;;14.20;99.90;;;;;;5097055;28;20461;-71
2022/10/15 02:39:40;;;;;;;24.00;19.20;;;14.20;99.90;;;;;;5097350;28;20453;-72
2022/10/15 02:42:07;;;;;;;22.93;19.00;;;14.20;99.90;;;;;;5097913;28;20457;-71
2022/10/15 02:44:34;;;;;;;23.23;18.60;;;14.20;99.90;;;;;;5097382;28;20463;-71
2022/10/15 02:47:01;;;;;;;25.27;19.50;;;14.20;99.90;;;;;;5097118;28;20453;-71
2022/10/15 02:49:30;;;;;;;23.60;19.00;;;14.20;99.90;;;;;;5097257;28;20464;-71
2022/10/15 02:51:56;;;;;;;27.70;18.50;;;14.20;99.90;;;;;;5096936;28;20496;-71
2022/10/15 02:54:23;;;;;;;25.93;19.53;;;14.20;99.90;;;;;;5098142;28;20866;-71
2022/10/15 02:56:50;;;;;;;24.83;18.03;;;14.20;99.90;;;;;;5098136;28;20520;-71
2022/10/15 02:59:18;;;;;;;24.80;18.70;;;14.20;99.90;;;;;;5098373;28;20552;-71
2022/10/15 03:01:45;;;;;;;24.47;18.97;;;14.20;99.90;;;;;;5097825;28;20562;-70
2022/10/15 03:04:12;;;;;;;26.83;19.33;;;14.20;99.90;;;;;;5096958;28;20853;-70
2022/10/15 03:06:40;;;;;;;25.60;18.80;;;14.30;99.90;;;;;;5096760;28;20860;-70
2022/10/15 03:09:07;;;;;;;25.50;19.03;;;14.20;99.90;;;;;;5096306;28;20454;-70
2022/10/15 03:11:34;;;;;;;23.43;18.60;;;14.20;99.90;;;;;;5096355;28;20449;-71
2022/10/15 03:14:01;;;;;;;21.67;18.97;;;14.30;99.90;;;;;;5096522;28;20453;-71
2022/10/15 03:16:27;;;;;;;23.20;18.50;;;14.30;99.90;;;;;;5096565;28;20464;-71
2022/10/15 03:18:54;;;;;;;21.87;17.90;;;14.30;99.90;;;;;;5096456;28;20453;-71
2022/10/15 03:21:21;;;;;;;24.70;18.83;;;14.30;99.90;;;;;;5096018;28;20470;-71
2022/10/15 03:23:49;;;;;;;25.23;18.40;;;14.30;99.90;;;;;;5096116;28;20564;-70
2022/10/15 03:26:16;;;;;;;22.20;18.77;;;14.20;99.90;;;;;;5096529;28;20464;-71
2022/10/15 03:28:43;;;;;;;23.13;18.40;;;14.20;99.90;;;;;;5096537;28;20472;-71
2022/10/15 03:31:12;;;;;;;22.13;17.97;;;14.20;99.90;;;;;;5095621;28;20851;-71
2022/10/15 03:33:39;;;;;;;23.00;20.27;;;14.20;99.90;;;;;;5096261;28;20497;-71
2022/10/15 03:36:06;;;;;;;24.07;18.43;;;14.20;99.90;;;;;;5096395;28;20453;-70
2022/10/15 03:38:33;;;;;;;26.80;19.87;;;14.20;99.90;;;;;;5096204;28;20457;-70
2022/10/15 03:41:02;;;;;;;28.40;19.00;;;14.10;99.90;;;;;;5096169;28;20809;-70
2022/10/15 03:43:28;;;;;;;25.40;19.40;;;14.10;99.90;;;;;;5096138;28;20543;-70
2022/10/15 03:45:55;;;;;;;23.53;18.03;;;14.10;99.90;;;;;;5095884;28;20929;-70
2022/10/15 03:48:22;;;;;;;27.70;20.60;;;14.10;99.90;;;;;;5096202;28;20453;-70
2022/10/15 03:50:49;;;;;;;23.87;19.23;;;14.10;99.90;;;;;;5095719;28;20532;-70
2022/10/15 03:53:16;;;;;;;24.33;19.77;;;14.10;99.90;;;;;;5095794;28;20453;-70
2022/10/15 03:55:43;;;;;;;22.47;18.40;;;14.10;99.90;;;;;;5096010;28;20799;-70
2022/10/15 03:58:11;;;;;;;24.43;18.03;;;14.10;99.90;;;;;;5095851;28;20550;-70
2022/10/15 04:00:41;;;;;;;24.77;20.13;;;14.10;99.90;;;;;;5095763;28;20488;-70
2022/10/15 04:03:08;;;;;;;24.00;18.20;;;14.10;99.90;;;;;;5095710;28;20453;-70
2022/10/15 04:05:35;;;;;;;27.93;20.53;;;14.20;99.90;;;;;;5096119;28;20465;-70
2022/10/15 04:08:01;;;;;;;22.47;18.70;;;14.10;99.90;;;;;;5095859;28;20525;-70
2022/10/15 04:10:28;;;;;;;23.33;18.60;;;14.20;99.90;;;;;;5095427;28;20544;-70
2022/10/15 04:12:55;;;;;;;24.80;18.60;;;14.20;99.90;;;;;;5095664;28;20465;-70
2022/10/15 04:15:26;;;;;;;20.00;16.70;;;14.20;99.90;;;;;;5095588;28;20453;-70
2022/10/15 04:17:55;;;;;;;23.70;19.20;;;14.20;99.90;;;;;;5095316;28;20473;-71
2022/10/15 04:20:21;;;;;;;21.47;18.17;;;14.20;99.90;;;;;;5095551;28;20461;-71
2022/10/15 04:22:48;;;;;;;21.80;17.97;;;14.20;99.90;;;;;;5095633;28;20544;-71
2022/10/15 04:25:15;;;;;;;21.90;18.20;;;14.20;99.90;;;;;;5094907;28;21044;-70
2022/10/15 04:27:42;;;;;;;27.73;17.97;;;14.20;99.90;;;;;;5095683;28;20457;-70
2022/10/15 04:30:11;;;;;;;23.37;18.47;;;14.20;99.90;;;;;;5095668;28;20548;-70
2022/10/15 04:32:39;;;;;;;23.00;18.80;;;14.20;99.90;;;;;;5095383;28;20453;-70
2022/10/15 04:35:06;;;;;;;23.50;17.77;;;14.20;99.90;;;;;;5095030;28;20461;-70
2022/10/15 04:37:34;;;;;;;26.57;18.00;;;14.20;99.90;;;;;;5095268;28;20457;-70
2022/10/15 04:40:01;;;;;;;24.60;18.93;;;14.20;99.90;;;;;;5094965;28;20457;-70
2022/10/15 04:42:29;;;;;;;21.43;18.03;;;14.20;99.90;;;;;;5094725;28;20481;-70
2022/10/15 04:44:56;;;;;;;24.67;17.20;;;14.20;99.90;;;;;;5094664;28;20489;-70
2022/10/15 04:47:23;;;;;;;22.70;17.73;;;14.20;99.90;;;;;;5094710;28;20531;-70
2022/10/15 04:49:51;;;;;;;21.87;17.30;;;14.30;99.90;;;;;;5094810;28;20460;-70
2022/10/15 04:52:18;;;;;;;21.00;18.07;;;14.30;99.90;;;;;;5094579;28;20548;-71
2022/10/15 04:54:45;;;;;;;21.33;16.93;;;14.30;99.90;;;;;;5095144;28;20453;-70
2022/10/15 04:57:12;;;;;;;25.13;19.47;;;14.20;99.90;;;;;;5094918;28;20453;-71
2022/10/15 04:59:39;;;;;;;18.77;16.33;;;14.30;99.90;;;;;;5095269;28;20540;-70
2022/10/15 05:02:06;;;;;;;21.73;16.30;;;14.30;99.90;;;;;;5095297;28;20572;-70
2022/10/15 05:04:33;;;;;;;19.60;15.67;;;14.30;99.90;;;;;;5095243;28;20464;-71
2022/10/15 05:07:01;;;;;;;21.57;17.13;;;14.30;99.90;;;;;;5094749;28;20493;-70
2022/10/15 05:09:28;;;;;;;22.60;16.90;;;14.30;99.90;;;;;;5094605;28;20578;-70
2022/10/15 05:11:55;;;;;;;21.77;17.53;;;14.30;99.90;;;;;;5094369;28;20935;-70
2022/10/15 05:14:22;;;;;;;19.80;16.33;;;14.30;99.90;;;;;;5094933;28;20551;-71
2022/10/15 05:16:49;;;;;;;20.60;17.07;;;14.30;99.90;;;;;;5094329;28;20522;-69
2022/10/15 05:19:16;;;;;;;22.13;16.87;;;14.30;99.90;;;;;;5094207;28;20540;-69
2022/10/15 05:21:43;;;;;;;21.47;16.90;;;14.30;99.90;;;;;;5094042;28;20476;-69
2022/10/15 05:24:12;;;;;;;22.97;17.00;;;14.30;99.90;;;;;;5094179;28;20557;-70
2022/10/15 05:26:38;;;;;;;22.10;15.83;;;14.30;99.90;;;;;;5094184;28;20459;-69
2022/10/15 05:29:05;;;;;;;18.73;16.20;;;14.30;99.90;;;;;;5094424;28;20577;-69
2022/10/15 05:31:33;;;;;;;19.90;15.70;;;14.30;99.90;;;;;;5094561;28;20453;-69
2022/10/15 05:34:05;;;;;;;22.73;17.87;;;14.30;99.90;;;;;;5094653;28;20453;-70
2022/10/15 05:36:32;;;;;;;19.83;15.83;;;14.30;99.90;;;;;;5094071;28;20910;-70
2022/10/15 05:39:00;;;;;;;18.03;15.97;;;14.30;99.90;;;;;;5094089;28;20457;-70
2022/10/15 05:41:30;;;;;;;19.30;16.07;;;14.30;99.90;;;;;;5094277;28;20478;-69
2022/10/15 05:43:58;;;;;;;18.90;16.17;;;14.20;99.90;;;;;;5094015;28;20459;-70
2022/10/15 05:46:25;;;;;;;21.53;16.00;;;14.20;99.90;;;;;;5094408;28;20972;-70
2022/10/15 05:48:53;;;;;;;19.43;17.03;;;14.20;99.90;;;;;;5093828;28;20648;-69
2022/10/15 05:51:20;;;;;;;19.03;15.70;;;14.20;99.90;;;;;;5094126;28;20460;-69
2022/10/15 05:53:46;;;;;;;20.93;16.10;;;14.20;99.90;;;;;;5095027;28;20471;-69
2022/10/15 05:56:14;;;;;;;17.80;14.43;;;14.20;99.90;;;;;;5098253;28;20453;-71
2022/10/15 05:58:42;;;;;;;21.13;16.20;;;14.20;99.90;;;;;;5098240;28;20459;-69
2022/10/15 06:01:11;;;;;;;18.17;14.60;;;14.20;99.90;;;;;;5098056;28;20488;-70
2022/10/15 06:03:39;;;;;;;19.53;15.37;;;14.20;99.90;;;;;;5098458;28;20463;-69
2022/10/15 06:06:14;;;;;;;19.33;14.63;;;14.20;99.90;;;;;;5098089;28;20784;-70
2022/10/15 06:08:41;;;;;;;17.67;15.33;;;14.30;99.90;;;;;;5098058;28;20450;-70
2022/10/15 06:11:08;;;;;;;20.17;14.73;;;14.30;99.90;;;;;;5097722;28;20457;-70
2022/10/15 06:13:34;;;;;;;19.70;15.57;;;14.30;99.90;;;;;;5098032;28;20467;-70
2022/10/15 06:16:03;;;;;;;16.53;14.60;;;14.30;99.90;;;;;;5097972;28;20453;-69
2022/10/15 06:18:30;;;;;;;16.90;14.40;;;14.30;99.90;;;;;;5098479;28;20463;-69
2022/10/15 06:20:57;;;;;;;17.17;14.67;;;14.40;99.90;;;;;;5097585;28;20517;-69
2022/10/15 06:23:24;;;;;;;17.20;13.93;;;14.40;99.90;;;;;;5097443;28;20457;-70
2022/10/15 06:25:51;;;;;;;17.03;14.30;;;14.40;99.90;;;;;;5097889;28;20540;-70
2022/10/15 06:28:18;;;;;;;16.47;14.03;;;14.40;99.90;;;;;;5097371;28;20463;-69
2022/10/15 06:30:45;;;;;;;17.33;14.40;;;14.40;99.90;;;;;;5097817;28;20463;-71
2022/10/15 06:33:14;;;;;;;20.20;14.10;;;14.40;99.90;;;;;;5097666;28;20456;-69
2022/10/15 06:35:42;;;;;;;14.93;12.87;;;14.40;99.90;;;;;;5098204;28;20453;-70
2022/10/15 06:38:08;;;;;;;16.50;13.67;;;14.40;99.90;;;;;;5098120;28;20511;-69
2022/10/15 06:40:37;;;;;;;18.37;15.70;;;14.40;99.90;;;;;;5097638;28;20548;-70
2022/10/15 06:43:06;;;;;;;20.60;13.80;;;14.40;99.90;;;;;;5097513;28;20480;-68
2022/10/15 06:45:35;;;;;;;17.83;14.30;;;14.50;99.90;;;;;;5097307;28;20454;-70
2022/10/15 06:48:03;;;;;;;16.07;13.50;;;14.50;99.90;;;;;;5097071;28;20453;-70
2022/10/15 06:50:31;;;;;;;15.10;13.17;;;14.60;99.90;;;;;;5096844;28;20487;-69
2022/10/15 06:52:58;;;;;;;16.20;12.97;;;14.60;99.90;;;;;;5097024;28;20909;-69
2022/10/15 06:55:25;;;;;;;21.10;16.83;;;14.60;99.90;;;;;;5097300;28;20457;-69
2022/10/15 06:57:52;;;;;;;18.37;14.20;;;14.60;99.90;;;;;;5097119;28;20463;-69
2022/10/15 07:00:19;;;;;;;24.43;14.90;;;14.60;99.90;;;;;;5097294;28;20788;-69
2022/10/15 07:02:46;;;;;;;18.47;14.30;;;14.70;99.90;;;;;;5096703;28;20564;-70
2022/10/15 07:05:12;;;;;;;15.10;13.50;;;14.80;99.90;;;;;;5096770;28;20473;-71
2022/10/15 07:07:40;;;;;;;17.30;12.90;;;14.80;99.90;;;;;;5097232;28;20463;-70
2022/10/15 07:10:08;;;;;;;13.70;12.30;;;14.90;99.90;;;;;;5097790;28;20845;-71
2022/10/15 07:12:35;;;;;;;20.23;12.73;;;15.00;99.90;;;;;;5097371;28;20510;-70
2022/10/15 07:15:02;;;;;;;13.63;12.10;;;15.00;99.90;;;;;;5096814;28;20460;-69
2022/10/15 07:17:30;;;;;;;15.40;12.70;;;15.10;99.90;;;;;;5096900;28;20552;-70
2022/10/15 07:19:57;;;;;;;13.63;12.10;;;15.10;99.90;;;;;;5096803;28;20457;-70
2022/10/15 07:22:24;;;;;;;15.93;12.70;;;15.20;99.90;;;;;;5096938;28;20587;-69
2022/10/15 07:24:52;;;;;;;13.57;11.60;;;15.20;99.90;;;;;;5096520;28;20572;-68
2022/10/15 07:27:19;;;;;;;14.60;12.10;;;15.20;99.90;;;;;;5096639;28;20493;-69
2022/10/15 07:29:46;;;;;;;14.37;12.33;;;15.20;99.90;;;;;;5096707;28;20851;-69
2022/10/15 07:32:13;;;;;;;16.47;13.37;;;15.20;99.90;;;;;;5096395;28;20449;-69
2022/10/15 07:34:40;;;;;;;16.63;14.07;;;15.20;99.90;;;;;;5095998;28;20790;-69
2022/10/15 07:37:06;;;;;;;16.60;13.17;;;15.30;99.90;;;;;;5096162;28;20453;-69
2022/10/15 07:39:33;;;;;;;14.97;12.60;;;15.30;99.90;;;;;;5096465;28;20467;-69
2022/10/15 07:42:01;;;;;;;13.53;12.00;;;15.30;99.90;;;;;;5096369;28;20485;-69
2022/10/15 07:44:28;;;;;;;13.27;11.90;;;15.40;99.90;;;;;;5096481;28;20566;-70
2022/10/15 07:46:55;;;;;;;14.60;11.00;;;15.50;99.90;;;;;;5095955;28;20457;-68
2022/10/15 07:49:22;;;;;;;17.40;13.13;;;15.60;99.90;;;;;;5096119;28;20457;-68
2022/10/15 07:51:49;;;;;;;14.00;11.70;;;15.70;99.90;;;;;;5095780;28;20545;-69
2022/10/15 07:54:16;;;;;;;12.43;11.13;;;15.80;99.90;;;;;;5095991;28;20457;-68
2022/10/15 07:56:42;;;;;;;15.40;11.63;;;15.90;99.90;;;;;;5096659;28;20462;-68
2022/10/15 07:59:11;;;;;;;11.90;10.70;;;16.00;99.90;;;;;;5095929;28;20540;-69
2022/10/15 08:01:37;;;;;;;14.13;11.70;;;16.10;99.90;;;;;;5095999;28;20477;-68
2022/10/15 08:04:04;;;;;;;13.20;10.40;;;16.20;99.90;;;;;;5095695;28;20918;-69
2022/10/15 08:06:32;;;;;;;12.50;11.20;;;16.30;99.90;;;;;;5095542;28;20445;-69
2022/10/15 08:08:59;;;;;;;12.83;11.00;;;16.40;99.90;;;;;;5095897;28;20552;-69
2022/10/15 08:11:25;;;;;;;11.97;10.77;;;16.40;99.90;;;;;;5095849;28;20493;-69
2022/10/15 08:13:53;;;;;;;11.43;10.23;;;16.50;99.90;;;;;;5095666;28;20845;-69
2022/10/15 08:16:21;;;;;;;11.83;10.53;;;16.50;99.90;;;;;;5094885;28;20464;-68
2022/10/15 08:18:48;;;;;;;12.67;10.20;;;16.60;99.90;;;;;;5095494;28;20544;-69
2022/10/15 08:21:15;;;;;;;11.87;9.97;;;16.60;99.90;;;;;;5095307;28;20933;-69
2022/10/15 08:23:41;;;;;;;12.60;10.77;;;16.70;99.90;;;;;;5095389;28;20485;-69
2022/10/15 08:26:08;;;;;;;11.33;9.40;;;16.70;99.90;;;;;;5095342;28;20446;-69
2022/10/15 08:28:36;;;;;;;12.03;9.90;;;16.80;99.90;;;;;;5095420;28;20464;-69
2022/10/15 08:31:03;;;;;;;10.93;9.90;;;16.80;99.90;;;;;;5095547;28;20917;-69
2022/10/15 08:33:32;;;;;;;9.90;8.93;;;16.90;99.90;;;;;;5095353;28;20449;-69
2022/10/15 08:35:59;;;;;;;10.43;9.43;;;16.90;99.90;;;;;;5095161;28;20461;-69
2022/10/15 08:38:25;;;;;;;10.03;9.00;;;17.00;99.90;;;;;;5095153;28;20548;-69
2022/10/15 08:40:55;;;;;;;10.13;9.10;;;17.00;99.90;;;;;;5095147;28;20556;-70
2022/10/15 08:43:25;;;;;;;11.20;9.53;;;17.10;99.90;;;;;;5095081;28;20482;-69
2022/10/15 08:45:57;;;;;;;10.97;9.03;;;17.10;99.90;;;;;;5094841;28;20463;-69
2022/10/15 08:48:29;;;;;;;10.10;8.87;;;17.10;99.90;;;;;;5094681;28;20438;-69
2022/10/15 08:51:02;;;;;;;11.37;9.87;;;17.10;99.90;;;;;;5094685;28;20905;-68
2022/10/15 08:53:34;;;;;;;11.80;9.80;;;17.20;99.90;;;;;;5094876;28;20771;-70
2022/10/15 08:56:08;;;;;;;14.10;11.67;;;17.20;99.90;;;;;;5094841;28;20469;-70
2022/10/15 08:58:45;;;;;;;12.90;10.20;;;17.20;99.90;;;;;;5095055;28;20452;-69
2022/10/15 09:01:27;;;;;;;10.53;9.43;;;17.20;99.90;;;;;;5095377;28;20768;-68
2022/10/15 09:04:07;;;;;;;11.37;10.03;;;17.20;99.90;;;;;;5094685;28;20503;-70
2022/10/15 09:06:37;;;;;;;11.57;10.20;;;17.20;99.90;;;;;;5094960;28;20433;-69
2022/10/15 09:09:11;;;;;;;11.93;9.00;;;17.20;99.90;;;;;;5095086;28;20453;-68
2022/10/15 09:11:46;;;;;;;11.10;9.97;;;17.30;99.90;;;;;;5094637;28;20433;-68
2022/10/15 09:14:16;;;;;;;11.90;9.40;;;17.40;99.90;;;;;;5094657;28;20440;-68
2022/10/15 09:16:46;;;;;;;10.87;9.70;;;17.60;99.90;;;;;;5095146;28;20457;-68
2022/10/15 09:19:17;;;;;;;9.90;8.83;;;17.70;99.90;;;;;;5094354;28;20783;-68
2022/10/15 09:21:46;;;;;;;11.30;9.10;;;17.90;99.90;;;;;;5094773;28;20524;-67
2022/10/15 09:24:19;;;;;;;10.63;9.07;;;17.90;99.90;;;;;;5094432;28;20481;-68
2022/10/15 09:26:54;;;;;;;11.00;9.73;;;17.90;99.90;;;;;;5094599;28;20770;-68
2022/10/15 09:29:28;;;;;;;10.43;9.33;;;17.90;99.90;;;;;;5096698;28;20453;-68
2022/10/15 09:32:04;;;;;;;10.10;9.00;;;17.90;99.90;;;;;;5098593;28;20442;-68
2022/10/15 09:34:38;;;;;;;10.43;9.30;;;17.90;99.90;;;;;;5098377;28;20437;-68
2022/10/15 09:37:14;;;;;;;10.90;9.70;;;17.80;99.90;;;;;;5098769;28;20460;-68
2022/10/15 09:39:56;;;;;;;10.10;9.20;;;17.90;99.90;;;;;;5098609;28;20570;-68
2022/10/15 09:42:30;;;;;;;10.37;9.17;;;17.90;99.90;;;;;;5098360;28;20464;-68
2022/10/15 09:45:00;;;;;;;10.17;9.17;;;18.00;99.90;;;;;;5097962;28;20441;-68
2022/10/15 09:47:29;;;;;;;10.23;9.20;;;18.10;99.90;;;;;;5098045;28;20457;-68
2022/10/15 09:49:56;;;;;;;9.73;8.70;;;18.10;99.90;;;;;;5098487;28;20471;-68
2022/10/15 09:52:41;;;;;;;12.70;8.93;;;18.20;99.90;;;;;;5098470;28;20449;-69
2022/10/15 09:55:18;;;;;;;9.53;8.57;;;18.30;99.90;;;;;;5098096;28;20441;-68
2022/10/15 09:57:50;;;;;;;9.40;8.50;;;18.40;99.90;;;;;;5098322;28;20451;-69
2022/10/15 10:00:17;;;;;;;9.03;8.23;;;18.70;99.90;;;;;;5098294;28;20760;-69
2022/10/15 10:02:43;;;;;;;9.73;8.57;;;18.80;99.90;;;;;;5097645;28;20565;-69
2022/10/15 10:05:28;;;;;;;12.70;10.33;;;18.90;99.90;;;;;;5097871;28;20453;-69
2022/10/15 10:08:10;;;;;;;9.80;8.80;;;19.10;99.90;;;;;;5098070;28;20840;-69
2022/10/15 10:10:38;;;;;;;10.50;8.87;;;19.20;99.90;;;;;;5097970;28;20443;-68
2022/10/15 10:13:20;;;;;;;10.00;9.00;;;19.30;99.90;;;;;;5097625;28;20456;-69
2022/10/15 10:15:47;;;;;;;10.00;8.97;;;19.40;99.90;;;;;;5098767;28;20882;-69
2022/10/15 10:18:19;;;;;;;10.60;8.70;;;19.40;99.90;;;;;;5097934;28;20865;-69
2022/10/15 10:20:57;;;;;;;9.13;8.23;;;19.40;99.90;;;;;;5098120;28;20777;-69
2022/10/15 10:23:30;;;;;;;9.87;8.90;;;19.50;99.90;;;;;;5097615;28;20838;-70
2022/10/15 10:25:58;;;;;;;9.80;8.90;;;19.50;99.90;;;;;;5097594;28;20506;-69
2022/10/15 10:28:31;;;;;;;9.03;8.13;;;19.40;99.90;;;;;;5097581;28;20457;-69
2022/10/15 10:31:04;;;;;;;8.00;7.20;;;19.50;99.90;;;;;;5098271;28;20842;-69
2022/10/15 10:33:34;;;;;;;8.57;7.77;;;19.50;99.90;;;;;;5097527;28;20525;-69
2022/10/15 10:36:03;;;;;;;8.77;7.97;;;19.50;99.90;;;;;;5098197;28;20452;-69
2022/10/15 10:38:33;;;;;;;9.30;7.37;;;19.50;99.90;;;;;;5097635;28;20516;-68
2022/10/15 10:41:05;;;;;;;10.23;8.40;;;19.50;99.90;;;;;;5097581;28;20484;-69
2022/10/15 10:43:34;;;;;;;9.17;8.17;;;19.50;99.90;;;;;;5097470;28;20509;-69
2022/10/15 10:46:04;;;;;;;8.63;7.83;;;19.50;99.90;;;;;;5097479;28;20785;-68
2022/10/15 10:48:39;;;;;;;9.80;8.20;;;19.60;99.90;;;;;;5097422;28;20464;-69
2022/10/15 10:51:13;;;;;;;9.27;8.33;;;19.60;99.90;;;;;;5097246;28;20441;-69
2022/10/15 10:53:50;;;;;;;8.63;7.83;;;19.60;99.90;;;;;;5097211;28;20787;-69
2022/10/15 10:56:21;;;;;;;9.10;8.20;;;19.60;99.90;;;;;;5097965;28;20445;-70
2022/10/15 10:58:53;;;;;;;10.10;8.27;;;19.60;99.90;;;;;;5097596;28;20450;-70
2022/10/15 11:01:20;;;;;;;8.33;6.87;;;19.60;99.90;;;;;;5097089;28;20912;-68
2022/10/15 11:03:48;;;;;;;8.10;7.27;;;19.70;99.90;;;;;;5097008;28;20538;-70
2022/10/15 11:06:35;;;;;;;8.30;7.20;;;19.70;99.90;;;;;;5097262;28;20457;-69
2022/10/15 11:09:20;;;;;;;7.83;7.07;;;19.80;99.90;;;;;;5097015;28;20450;-69
2022/10/15 11:12:00;;;;;;;7.47;6.77;;;19.80;99.90;;;;;;5097203;28;20781;-69
2022/10/15 11:14:34;;;;;;;8.00;7.30;;;19.80;99.90;;;;;;5096836;28;20746;-68
2022/10/15 11:17:08;;;;;;;7.93;7.00;;;20.10;99.90;;;;;;5096445;28;20904;-69
2022/10/15 11:19:42;;;;;;;7.97;6.87;;;20.20;99.90;;;;;;5096442;28;20548;-70
2022/10/15 11:22:24;;;;;;;7.60;6.90;;;20.20;99.90;;;;;;5096516;28;20451;-67
2022/10/15 11:25:03;;;;;;;6.90;6.20;;;20.20;99.90;;;;;;5096089;28;20484;-69
2022/10/15 11:27:50;;;;;;;7.00;6.33;;;20.20;99.90;;;;;;5096306;28;20869;-68
2022/10/15 11:30:32;;;;;;;6.90;6.30;;;20.10;99.90;;;;;;5096274;28;20446;-69
2022/10/15 11:33:09;;;;;;;9.70;6.10;;;20.10;99.90;;;;;;5095524;28;20856;-69
2022/10/15 11:35:45;;;;;;;8.70;7.50;;;20.00;99.90;;;;;;5096809;28;20451;-69
2022/10/15 11:38:19;;;;;;;8.20;7.40;;;20.00;99.90;;;;;;5096540;28;20517;-69
2022/10/15 11:40:58;;;;;;;7.70;6.77;;;19.90;99.90;;;;;;5096896;28;20499;-68
2022/10/15 11:43:38;;;;;;;7.57;6.87;;;19.80;99.90;;;;;;5096359;28;20493;-69
2022/10/15 11:46:11;;;;;;;6.90;5.43;;;19.80;99.90;;;;;;5096141;28;20437;-70
2022/10/15 11:48:52;;;;;;;6.70;6.10;;;19.70;99.90;;;;;;5096112;28;20442;-70
2022/10/15 11:51:26;;;;;;;6.10;5.50;;;19.60;99.90;;;;;;5094886;28;20441;-69
2022/10/15 11:54:12;;;;;;;7.70;6.27;;;19.50;99.90;;;;;;5095836;28;20978;-69
2022/10/15 11:56:43;;;;;;;10.97;7.80;;;19.50;99.90;;;;;;5095670;28;20457;-69
2022/10/15 11:59:28;;;;;;;7.20;5.83;;;19.60;99.90;;;;;;5096418;28;20434;-69
2022/10/15 12:02:00;;;;;;;6.80;5.57;;;19.70;99.90;;;;;;5095685;28;20452;-69
2022/10/15 12:04:32;;;;;;;5.93;5.37;;;19.70;99.90;;;;;;5095510;28;20469;-68
2022/10/15 12:07:02;;;;;;;7.00;5.47;;;19.80;99.90;;;;;;5095386;28;20448;-68
2022/10/15 12:09:33;;;;;;;7.10;5.43;;;19.80;99.90;;;;;;5095466;28;20933;-68
2022/10/15 12:12:09;;;;;;;5.37;4.80;;;19.80;99.90;;;;;;5095844;28;20442;-69
2022/10/15 12:14:41;;;;;;;5.63;5.13;;;19.80;99.90;;;;;;5095792;28;20536;-68
2022/10/15 12:17:16;;;;;;;5.60;4.60;;;19.90;99.90;;;;;;5095496;28;20443;-68
2022/10/15 12:19:50;;;;;;;4.80;4.27;;;19.90;99.90;;;;;;5095983;28;20444;-69
2022/10/15 12:22:33;;;;;;;5.87;5.37;;;20.00;99.90;;;;;;5095446;28;20448;-69
2022/10/15 12:25:00;;;;;;;6.00;5.00;;;20.10;99.90;;;;;;5095893;28;20481;-69
2022/10/15 12:27:34;;;;;;;4.83;4.30;;;20.80;99.90;;;;;;5095954;28;20522;-70
2022/10/15 12:30:33;;;;;;;4.80;4.40;;;21.40;99.90;;;;;;5096194;28;20453;-69
2022/10/15 12:33:00;;;;;;;5.33;4.83;;;21.80;99.90;;;;;;5095369;28;20441;-70
2022/10/15 12:35:37;;;;;;;4.60;4.23;;;21.70;99.90;;;;;;5095378;28;20449;-69
2022/10/15 12:38:18;;;;;;;4.97;4.57;;;21.40;99.90;;;;;;5095008;28;20453;-69
2022/10/15 12:40:46;;;;;;;5.93;4.20;;;21.10;99.90;;;;;;5095282;28;20448;-69
2022/10/15 12:43:16;;;;;;;5.30;4.70;;;20.90;99.90;;;;;;5095134;28;20488;-69
2022/10/15 12:45:51;;;;;;;5.10;4.70;;;20.70;99.90;;;;;;5094887;28;20925;-74
2022/10/15 12:48:23;;;;;;;4.83;4.40;;;20.40;99.90;;;;;;5095190;28;20528;-68